createdAt,value
2019-03-01T00:01:04.830Z,31.15
2019-03-01T00:03:33.886Z,31.10
2019-03-01T00:06:23.566Z,31.19
2019-03-01T00:09:01.219Z,31.17
2019-03-01T00:11:52.318Z,31.23
2019-03-01T00:14:55.678Z,31.22
2019-03-01T00:17:48.750Z,31.20
2019-03-01T00:20:23.137Z,31.19
2019-03-01T00:23:03.908Z,31.22
2019-03-01T00:25:44.337Z,31.18
2019-03-01T00:28:21.970Z,31.19
2019-03-01T00:30:53.653Z,31.24
2019-03-01T00:33:58.903Z,31.23
2019-03-01T00:36:50.061Z,31.24
2019-03-01T00:39:39.959Z,31.25
2019-03-01T00:42:17.332Z,31.26
2019-03-01T00:44:48.345Z,31.24
2019-03-01T00:47:17.200Z,31.30
2019-03-01T00:49:45.585Z,31.26
2019-03-01T00:52:14.072Z,31.32
2019-03-01T00:54:42.465Z,31.34
2019-03-01T00:57:10.895Z,31.35
2019-03-01T00:59:39.284Z,31.36
2019-03-01T01:02:07.704Z,31.42
2019-03-01T01:04:36.088Z,31.39
2019-03-01T01:07:04.524Z,31.46
2019-03-01T01:09:32.919Z,31.47
2019-03-01T01:12:01.337Z,31.44
2019-03-01T01:14:29.719Z,31.48
2019-03-01T01:16:58.148Z,31.45
2019-03-01T01:19:26.534Z,31.50
2019-03-01T01:21:55.035Z,31.48
2019-03-01T01:24:23.420Z,31.52
2019-03-01T01:26:51.831Z,31.51
2019-03-01T01:29:20.213Z,31.54
2019-03-01T01:31:48.632Z,31.53
2019-03-01T01:34:17.036Z,31.56
2019-03-01T01:36:45.457Z,31.57
2019-03-01T01:39:13.845Z,31.50
2019-03-01T01:41:42.346Z,31.50
2019-03-01T01:44:10.739Z,31.59
2019-03-01T01:46:39.125Z,31.63
2019-03-01T01:49:07.512Z,31.63
2019-03-01T01:51:35.951Z,31.57
2019-03-01T01:54:04.513Z,31.63
2019-03-01T01:56:32.993Z,31.55
2019-03-01T01:59:01.414Z,31.63
2019-03-01T02:01:29.803Z,31.63
2019-03-01T02:03:58.184Z,31.63
2019-03-01T02:06:26.741Z,31.69
2019-03-01T02:08:55.134Z,31.68
2019-03-01T02:11:23.596Z,31.69
2019-03-01T02:13:51.984Z,31.70
2019-03-01T02:16:20.374Z,31.70
2019-03-01T02:18:57.256Z,31.73
2019-03-01T02:21:18.982Z,31.71
2019-03-01T02:23:47.378Z,31.73
2019-03-01T02:26:15.772Z,31.80
2019-03-01T02:28:44.161Z,31.76
2019-03-01T02:31:12.884Z,31.87
2019-03-01T02:33:41.280Z,31.83
2019-03-01T02:36:09.667Z,31.81
2019-03-01T02:38:38.073Z,31.86
2019-03-01T02:41:06.465Z,31.86
2019-03-01T02:43:34.855Z,31.83
2019-03-01T02:46:03.244Z,31.83
2019-03-01T02:48:31.718Z,31.86
2019-03-01T02:51:00.210Z,31.90
2019-03-01T02:53:28.607Z,31.94
2019-03-01T02:55:56.999Z,31.86
2019-03-01T02:58:25.393Z,31.89
2019-03-01T03:00:53.784Z,31.92
2019-03-01T03:03:22.173Z,31.88
2019-03-01T03:05:55.195Z,31.87
2019-03-01T03:08:23.614Z,31.89
2019-03-01T03:10:52.026Z,31.88
2019-03-01T03:13:20.415Z,31.89
2019-03-01T03:15:50.687Z,31.93
2019-03-01T03:18:19.110Z,31.86
2019-03-01T03:20:47.613Z,31.90
2019-03-01T03:23:16.026Z,31.93
2019-03-01T03:25:44.415Z,31.93
2019-03-01T03:28:12.854Z,31.90
2019-03-01T03:30:41.242Z,31.88
2019-03-01T03:33:09.696Z,32.00
2019-03-01T03:35:38.087Z,31.95
2019-03-01T03:38:06.513Z,31.98
2019-03-01T03:40:34.900Z,32.02
2019-03-01T03:43:03.333Z,32.03
2019-03-01T03:45:31.720Z,32.04
2019-03-01T03:48:00.223Z,32.02
2019-03-01T03:50:28.607Z,32.09
2019-03-01T03:52:57.046Z,32.08
2019-03-01T03:55:25.467Z,32.06
2019-03-01T03:57:53.854Z,32.12
2019-03-01T04:00:25.691Z,32.13
2019-03-01T04:02:54.279Z,32.14
2019-03-01T04:05:22.636Z,32.17
2019-03-01T04:07:51.023Z,32.14
2019-03-01T04:10:19.414Z,32.12
2019-03-01T04:12:47.813Z,32.12
2019-03-01T04:15:18.885Z,32.15
2019-03-01T04:17:47.269Z,32.19
2019-03-01T04:20:19.035Z,32.22
2019-03-01T04:22:47.421Z,32.27
2019-03-01T04:25:15.814Z,32.28
2019-03-01T04:27:44.214Z,32.25
2019-03-01T04:30:14.731Z,32.30
2019-03-01T04:32:43.152Z,32.22
2019-03-01T04:35:11.670Z,32.30
2019-03-01T04:37:40.149Z,32.30
2019-03-01T04:40:13.699Z,32.28
2019-03-01T04:42:42.132Z,32.33
2019-03-01T04:45:15.593Z,32.35
2019-03-01T04:47:44.147Z,32.33
2019-03-01T04:50:12.805Z,32.27
2019-03-01T04:52:41.739Z,32.34
2019-03-01T04:55:18.525Z,32.34
2019-03-01T04:57:46.917Z,32.40
2019-03-01T05:00:17.251Z,32.36
2019-03-01T05:02:45.637Z,32.40
2019-03-01T05:05:14.373Z,32.38
2019-03-01T05:07:42.757Z,32.36
2019-03-01T05:10:13.084Z,32.43
2019-03-01T05:12:41.485Z,32.39
2019-03-01T05:15:18.451Z,32.41
2019-03-01T05:17:46.845Z,32.36
2019-03-01T05:20:15.240Z,32.35
2019-03-01T05:22:43.630Z,32.38
2019-03-01T05:25:12.189Z,32.47
2019-03-01T05:27:40.564Z,32.41
2019-03-01T05:30:11.596Z,32.45
2019-03-01T05:32:40.011Z,32.50
2019-03-01T05:35:08.663Z,32.42
2019-03-01T05:37:37.093Z,32.40
2019-03-01T05:40:08.662Z,32.51
2019-03-01T05:42:37.058Z,32.58
2019-03-01T05:45:08.844Z,32.52
2019-03-01T05:47:37.233Z,32.59
2019-03-01T05:50:08.890Z,32.60
2019-03-01T05:52:37.287Z,32.55
2019-03-01T05:55:08.153Z,32.54
2019-03-01T05:57:36.544Z,32.58
2019-03-01T06:00:09.929Z,32.57
2019-03-01T06:02:47.115Z,32.58
2019-03-01T06:05:15.705Z,32.56
2019-03-01T06:07:59.271Z,32.44
2019-03-01T06:13:22.817Z,32.47
2019-03-01T06:16:00.470Z,32.68
2019-03-01T06:18:48.555Z,32.75
2019-03-01T06:21:55.260Z,32.74
2019-03-01T06:24:51.245Z,32.49
2019-03-01T06:27:39.158Z,32.42
2019-03-01T06:30:25.815Z,32.31
2019-03-01T06:33:12.496Z,32.22
2019-03-01T06:36:02.231Z,32.13
2019-03-01T06:38:53.132Z,32.07
2019-03-01T06:41:35.119Z,32.06
2019-03-01T06:44:06.854Z,31.89
2019-03-01T06:46:55.328Z,31.90
2019-03-01T06:49:25.356Z,31.85
2019-03-01T06:51:53.749Z,31.80
2019-03-01T06:54:22.149Z,31.77
2019-03-01T06:56:50.553Z,31.73
2019-03-01T06:59:18.979Z,31.65
2019-03-01T07:01:48.126Z,31.63
2019-03-01T07:04:17.097Z,31.56
2019-03-01T07:06:45.491Z,31.57
2019-03-01T07:09:13.929Z,31.50
2019-03-01T07:11:42.322Z,31.38
2019-03-01T07:14:10.756Z,31.40
2019-03-01T07:16:39.146Z,31.32
2019-03-01T07:19:07.594Z,31.29
2019-03-01T07:21:36.039Z,31.24
2019-03-01T07:24:04.574Z,31.21
2019-03-01T07:26:33.021Z,31.14
2019-03-01T07:29:01.423Z,31.14
2019-03-01T07:31:29.806Z,31.05
2019-03-01T07:33:58.198Z,31.03
2019-03-01T07:36:26.579Z,30.99
2019-03-01T07:38:54.974Z,30.95
2019-03-01T07:41:23.604Z,30.89
2019-03-01T07:43:51.995Z,30.81
2019-03-01T07:46:20.447Z,30.80
2019-03-01T07:48:48.901Z,30.75
2019-03-01T07:51:17.300Z,30.71
2019-03-01T07:53:45.680Z,30.69
2019-03-01T07:56:14.157Z,30.64
2019-03-01T07:58:42.550Z,30.60
2019-03-01T08:01:10.935Z,30.51
2019-03-01T08:03:39.334Z,30.50
2019-03-01T08:06:13.098Z,30.44
2019-03-01T08:08:38.787Z,30.40
2019-03-01T08:11:08.039Z,30.37
2019-03-01T08:13:36.423Z,30.35
2019-03-01T08:16:04.806Z,30.30
2019-03-01T08:18:33.201Z,30.23
2019-03-01T08:21:01.597Z,30.21
2019-03-01T08:23:31.712Z,30.18
2019-03-01T08:26:00.128Z,30.12
2019-03-01T08:28:28.603Z,30.04
2019-03-01T08:30:56.983Z,30.03
2019-03-01T08:33:25.397Z,29.94
2019-03-01T08:35:53.785Z,29.90
2019-03-01T08:38:25.370Z,29.82
2019-03-01T08:40:54.449Z,29.77
2019-03-01T08:43:22.498Z,29.67
2019-03-01T08:45:50.885Z,29.66
2019-03-01T08:48:19.295Z,29.61
2019-03-01T08:50:47.678Z,29.54
2019-03-01T08:53:16.201Z,29.51
2019-03-01T08:55:44.595Z,29.42
2019-03-01T08:58:13.003Z,29.31
2019-03-01T09:00:43.823Z,29.22
2019-03-01T09:03:35.048Z,29.07
2019-03-01T09:06:03.436Z,28.94
2019-03-01T09:08:31.864Z,28.84
2019-03-01T09:11:00.254Z,28.76
2019-03-01T09:13:28.676Z,28.65
2019-03-01T09:15:57.065Z,28.52
2019-03-01T09:18:25.538Z,28.45
2019-03-01T09:20:53.921Z,28.37
2019-03-01T09:23:26.417Z,28.26
2019-03-01T09:25:52.466Z,28.19
2019-03-01T09:28:20.885Z,28.10
2019-03-01T09:30:49.273Z,28.01
2019-03-01T09:33:21.573Z,27.86
2019-03-01T09:35:52.141Z,27.78
2019-03-01T09:38:20.573Z,27.66
2019-03-01T09:40:48.956Z,27.54
2019-03-01T09:43:17.392Z,27.52
2019-03-01T09:45:48.814Z,27.34
2019-03-01T09:48:15.906Z,27.26
2019-03-01T09:50:44.298Z,27.19
2019-03-01T09:53:12.703Z,27.12
2019-03-01T09:55:41.076Z,27.03
2019-03-01T09:58:09.468Z,26.88
2019-03-01T10:00:56.042Z,26.82
2019-03-01T10:03:17.123Z,26.71
2019-03-01T10:05:45.509Z,26.67
2019-03-01T10:08:14.238Z,26.54
2019-03-01T10:10:42.634Z,26.47
2019-03-01T10:13:11.021Z,26.40
2019-03-01T10:15:39.414Z,26.31
2019-03-01T10:18:07.805Z,26.18
2019-03-01T10:20:36.268Z,26.15
2019-03-01T10:23:04.652Z,26.11
2019-03-01T10:25:33.040Z,25.93
2019-03-01T10:28:01.429Z,25.86
2019-03-01T10:30:29.882Z,25.78
2019-03-01T10:32:58.294Z,25.71
2019-03-01T10:35:26.670Z,25.59
2019-03-01T10:37:55.133Z,25.52
2019-03-01T10:40:24.671Z,25.38
2019-03-01T10:42:53.048Z,25.28
2019-03-01T10:45:24.723Z,25.26
2019-03-01T10:47:53.109Z,25.12
2019-03-01T10:50:21.496Z,24.97
2019-03-01T10:52:49.892Z,24.90
2019-03-01T10:55:19.201Z,24.93
2019-03-01T10:57:47.656Z,24.78
2019-03-01T11:00:26.737Z,24.68
2019-03-01T11:02:56.064Z,24.66
2019-03-01T11:05:25.238Z,24.45
2019-03-01T11:07:57.202Z,24.30
2019-03-01T11:10:28.856Z,24.10
2019-03-01T11:12:57.243Z,23.92
2019-03-01T11:15:25.649Z,23.66
2019-03-01T11:17:54.125Z,23.51
2019-03-01T11:20:22.892Z,23.21
2019-03-01T11:22:51.320Z,23.06
2019-03-01T11:25:21.965Z,22.82
2019-03-01T11:27:50.351Z,22.65
2019-03-01T11:30:27.467Z,22.45
2019-03-01T11:32:55.862Z,22.26
2019-03-01T11:35:24.286Z,22.12
2019-03-01T11:37:52.685Z,21.96
2019-03-01T11:40:23.884Z,21.80
2019-03-01T11:42:52.269Z,21.73
2019-03-01T11:45:20.710Z,21.57
2019-03-01T11:47:49.127Z,21.43
2019-03-01T11:50:22.666Z,21.34
2019-03-01T11:52:51.126Z,21.40
2019-03-01T11:55:19.614Z,21.47
2019-03-01T11:57:48.247Z,21.49
2019-03-01T12:00:26.585Z,21.43
2019-03-01T12:02:54.967Z,21.32
2019-03-01T12:05:23.374Z,21.23
2019-03-01T12:07:51.767Z,21.27
2019-03-01T12:10:28.604Z,21.26
2019-03-01T12:12:58.621Z,21.34
2019-03-01T12:15:27.088Z,21.33
2019-03-01T12:17:55.483Z,21.25
2019-03-01T12:20:30.010Z,21.23
2019-03-01T12:22:58.398Z,21.10
2019-03-01T12:25:26.794Z,20.98
2019-03-01T12:27:55.227Z,20.93
2019-03-01T12:30:25.194Z,20.91
2019-03-01T12:32:53.639Z,20.96
2019-03-01T12:35:22.033Z,20.93
2019-03-01T12:37:50.413Z,20.73
2019-03-01T12:40:30.041Z,20.64
2019-03-01T12:42:58.434Z,20.64
2019-03-01T12:45:26.825Z,20.58
2019-03-01T12:47:55.231Z,20.55
2019-03-01T12:50:23.699Z,20.61
2019-03-01T12:52:52.095Z,20.54
2019-03-01T12:55:25.859Z,20.55
2019-03-01T12:57:54.301Z,20.59
2019-03-01T13:00:25.209Z,20.53
2019-03-01T13:02:53.590Z,20.53
2019-03-01T13:05:22.019Z,20.74
2019-03-01T13:07:50.406Z,20.98
2019-03-01T13:10:22.103Z,21.23
2019-03-01T13:12:50.487Z,21.41
2019-03-01T13:15:18.893Z,21.50
2019-03-01T13:17:47.290Z,21.64
2019-03-01T13:20:18.345Z,21.69
2019-03-01T13:22:46.780Z,21.72
2019-03-01T13:25:15.790Z,21.80
2019-03-01T13:27:44.198Z,21.79
2019-03-01T13:30:17.702Z,21.85
2019-03-01T13:32:46.100Z,21.89
2019-03-01T13:35:16.461Z,21.98
2019-03-01T13:37:44.852Z,22.17
2019-03-01T13:40:15.328Z,22.34
2019-03-01T13:42:43.711Z,22.52
2019-03-01T13:45:17.287Z,22.74
2019-03-01T13:47:45.663Z,22.88
2019-03-01T13:50:16.234Z,23.03
2019-03-01T13:52:44.631Z,23.21
2019-03-01T13:55:14.899Z,23.26
2019-03-01T13:57:46.008Z,23.46
2019-03-01T14:00:21.914Z,23.56
2019-03-01T14:02:50.443Z,23.62
2019-03-01T14:05:19.006Z,23.75
2019-03-01T14:07:48.331Z,23.96
2019-03-01T14:10:19.588Z,23.99
2019-03-01T14:12:47.986Z,24.07
2019-03-01T14:15:17.642Z,24.24
2019-03-01T14:17:46.021Z,24.41
2019-03-01T14:20:20.361Z,24.53
2019-03-01T14:22:49.419Z,24.58
2019-03-01T14:25:18.364Z,24.73
2019-03-01T14:27:46.799Z,24.79
2019-03-01T14:30:31.166Z,24.86
2019-03-01T14:32:57.491Z,24.97
2019-03-01T14:35:27.178Z,25.06
2019-03-01T14:37:55.976Z,25.14
2019-03-01T14:40:24.418Z,25.14
2019-03-01T14:42:52.799Z,25.24
2019-03-01T14:45:32.526Z,25.32
2019-03-01T14:48:00.912Z,25.40
2019-03-01T14:50:33.623Z,25.57
2019-03-01T14:53:00.648Z,25.53
2019-03-01T14:55:38.112Z,25.70
2019-03-01T14:58:15.695Z,25.68
2019-03-01T15:00:56.139Z,25.87
2019-03-01T15:03:32.952Z,25.93
2019-03-01T15:06:01.325Z,26.02
2019-03-01T15:08:30.075Z,26.14
2019-03-01T15:11:04.396Z,26.18
2019-03-01T15:13:34.783Z,26.30
2019-03-01T15:16:04.691Z,26.34
2019-03-01T15:18:33.654Z,26.38
2019-03-01T15:21:02.837Z,26.48
2019-03-01T15:23:31.446Z,26.50
2019-03-01T15:25:59.893Z,26.57
2019-03-01T15:28:28.294Z,26.66
2019-03-01T15:30:57.345Z,26.72
2019-03-01T15:33:25.907Z,26.78
2019-03-01T15:35:54.386Z,26.80
2019-03-01T15:38:23.921Z,26.90
2019-03-01T15:40:52.920Z,26.94
2019-03-01T15:43:21.360Z,27.01
2019-03-01T15:45:49.748Z,27.08
2019-03-01T15:48:18.131Z,27.10
2019-03-01T15:50:46.523Z,27.16
2019-03-01T15:53:14.916Z,27.22
2019-03-01T15:55:44.954Z,27.23
2019-03-01T15:58:13.357Z,27.29
2019-03-01T16:00:41.746Z,27.32
2019-03-01T16:03:10.140Z,27.40
2019-03-01T16:05:38.533Z,27.42
2019-03-01T16:08:08.365Z,27.49
2019-03-01T16:10:37.039Z,27.53
2019-03-01T16:13:08.314Z,27.58
2019-03-01T16:15:38.720Z,27.60
2019-03-01T16:18:05.692Z,27.61
2019-03-01T16:20:34.128Z,27.62
2019-03-01T16:23:02.519Z,27.65
2019-03-01T16:25:30.903Z,27.74
2019-03-01T16:27:59.296Z,27.75
2019-03-01T16:30:27.682Z,27.80
2019-03-01T16:32:56.083Z,27.81
2019-03-01T16:35:24.469Z,27.90
2019-03-01T16:37:57.878Z,27.85
2019-03-01T16:40:27.594Z,27.91
2019-03-01T16:42:55.994Z,27.91
2019-03-01T16:45:24.541Z,27.95
2019-03-01T16:47:52.929Z,28.01
2019-03-01T16:50:21.491Z,27.95
2019-03-01T16:52:49.889Z,27.99
2019-03-01T16:55:24.353Z,28.01
2019-03-01T16:58:05.986Z,28.05
2019-03-01T17:00:24.478Z,28.09
2019-03-01T17:03:17.104Z,28.10
2019-03-01T17:05:43.722Z,28.13
2019-03-01T17:08:12.118Z,28.18
2019-03-01T17:10:40.510Z,28.16
2019-03-01T17:13:08.900Z,28.18
2019-03-01T17:15:37.304Z,28.18
2019-03-01T17:18:11.276Z,28.17
2019-03-01T17:20:38.402Z,28.22
2019-03-01T17:23:06.050Z,28.22
2019-03-01T17:25:34.458Z,28.23
2019-03-01T17:28:02.892Z,28.27
2019-03-01T17:30:31.291Z,28.30
2019-03-01T17:32:59.747Z,28.29
2019-03-01T17:35:28.125Z,28.32
2019-03-01T17:37:56.558Z,28.32
2019-03-01T17:40:24.974Z,28.34
2019-03-01T17:42:56.582Z,28.33
2019-03-01T17:45:25.726Z,28.36
2019-03-01T17:47:55.398Z,28.35
2019-03-01T17:50:23.945Z,28.39
2019-03-01T17:52:52.432Z,28.39
2019-03-01T17:55:25.467Z,28.41
2019-03-01T17:57:54.021Z,28.43
2019-03-01T18:00:34.033Z,28.41
2019-03-01T18:03:02.424Z,28.41
2019-03-01T18:05:30.827Z,28.42
2019-03-01T18:07:59.845Z,28.45
2019-03-01T18:10:32.095Z,28.45
2019-03-01T18:12:59.493Z,28.48
2019-03-01T18:15:27.885Z,28.49
2019-03-01T18:17:57.210Z,28.46
2019-03-01T18:20:25.608Z,28.49
2019-03-01T18:22:54.206Z,28.50
2019-03-01T18:25:25.877Z,28.46
2019-03-01T18:27:53.807Z,28.52
2019-03-01T18:30:23.935Z,28.50
2019-03-01T18:32:52.516Z,28.50
2019-03-01T18:35:20.921Z,28.51
2019-03-01T18:37:51.434Z,28.52
2019-03-01T18:40:21.092Z,28.52
2019-03-01T18:42:49.491Z,28.50
2019-03-01T18:45:22.734Z,28.56
2019-03-01T18:47:51.169Z,28.59
2019-03-01T18:50:31.347Z,28.57
2019-03-01T18:53:00.171Z,28.56
2019-03-01T18:55:28.563Z,28.55
2019-03-01T18:57:56.996Z,28.58
2019-03-01T19:00:32.418Z,28.62
2019-03-01T19:03:04.379Z,28.65
2019-03-01T19:05:32.016Z,28.57
2019-03-01T19:08:00.862Z,28.36
2019-03-01T19:10:30.668Z,28.20
2019-03-01T19:12:59.112Z,28.21
2019-03-01T19:15:27.497Z,28.24
2019-03-01T19:17:55.995Z,28.19
2019-03-01T19:20:29.414Z,28.28
2019-03-01T19:22:58.683Z,28.30
2019-03-01T19:25:27.173Z,28.33
2019-03-01T19:27:55.622Z,28.33
2019-03-01T19:30:25.486Z,28.34
2019-03-01T19:32:53.898Z,28.35
2019-03-01T19:35:28.262Z,28.35
2019-03-01T19:37:53.579Z,28.35
2019-03-01T19:40:22.925Z,28.32
2019-03-01T19:42:53.028Z,28.31
2019-03-01T19:45:21.431Z,28.27
2019-03-01T19:47:49.858Z,28.23
2019-03-01T19:50:25.009Z,28.22
2019-03-01T19:52:53.799Z,28.20
2019-03-01T19:55:22.186Z,28.13
2019-03-01T19:57:50.622Z,28.09
2019-03-01T20:00:27.152Z,28.06
2019-03-01T20:02:55.588Z,28.01
2019-03-01T20:05:31.715Z,27.97
2019-03-01T20:07:59.263Z,27.94
2019-03-01T20:10:27.709Z,27.85
2019-03-01T20:12:56.065Z,27.77
2019-03-01T20:15:25.972Z,27.73
2019-03-01T20:17:54.937Z,27.68
2019-03-01T20:20:25.736Z,27.59
2019-03-01T20:22:55.241Z,27.53
2019-03-01T20:25:23.747Z,27.49
2019-03-01T20:27:52.180Z,27.39
2019-03-01T20:30:30.117Z,27.31
2019-03-01T20:32:55.618Z,27.13
2019-03-01T20:35:25.838Z,27.13
2019-03-01T20:37:54.234Z,26.97
2019-03-01T20:40:26.138Z,26.94
2019-03-01T20:42:55.860Z,26.89
2019-03-01T20:45:29.937Z,26.81
2019-03-01T20:47:58.836Z,26.69
2019-03-01T20:50:27.306Z,26.60
2019-03-01T20:52:55.874Z,26.54
2019-03-01T20:55:24.270Z,26.53
2019-03-01T20:57:52.674Z,26.49
2019-03-01T21:00:26.157Z,26.34
2019-03-01T21:02:56.657Z,26.37
2019-03-01T21:05:28.737Z,26.31
2019-03-01T21:07:55.183Z,26.29
2019-03-01T21:10:27.951Z,26.22
2019-03-01T21:12:56.451Z,26.17
2019-03-01T21:15:25.000Z,26.11
2019-03-01T21:17:56.934Z,26.11
2019-03-01T21:20:23.516Z,26.05
2019-03-01T21:22:54.327Z,26.00
2019-03-01T21:25:23.965Z,26.14
2019-03-01T21:27:52.445Z,26.53
2019-03-01T21:30:34.650Z,26.51
2019-03-01T21:33:03.051Z,26.75
2019-03-01T21:35:31.448Z,26.73
2019-03-01T21:37:59.854Z,26.87
2019-03-01T21:40:31.464Z,26.99
2019-03-01T21:43:00.180Z,27.07
2019-03-01T21:45:28.513Z,27.06
2019-03-01T21:47:56.969Z,27.15
2019-03-01T21:50:25.381Z,27.16
2019-03-01T21:52:53.783Z,27.25
2019-03-01T21:55:28.558Z,27.29
2019-03-01T21:57:56.727Z,27.39
2019-03-01T22:00:31.391Z,27.43
2019-03-01T22:02:59.608Z,27.47
2019-03-01T22:05:28.079Z,27.48
2019-03-01T22:07:56.508Z,27.58
2019-03-01T22:10:24.917Z,27.66
2019-03-01T22:12:53.327Z,27.74
2019-03-01T22:15:29.399Z,27.77
2019-03-01T22:17:57.795Z,27.77
2019-03-01T22:20:26.245Z,27.91
2019-03-01T22:22:54.635Z,27.95
2019-03-01T22:25:23.104Z,27.98
2019-03-01T22:27:51.507Z,28.05
2019-03-01T22:30:28.770Z,28.11
2019-03-01T22:32:57.162Z,28.17
2019-03-01T22:35:25.572Z,28.22
2019-03-01T22:37:54.042Z,28.30
2019-03-01T22:40:24.006Z,28.32
2019-03-01T22:42:52.566Z,28.42
2019-03-01T22:45:20.967Z,28.43
2019-03-01T22:47:49.372Z,28.53
2019-03-01T22:50:19.991Z,28.59
2019-03-01T22:52:48.538Z,28.67
2019-03-01T22:55:17.774Z,28.68
2019-03-01T22:57:46.173Z,28.83
2019-03-01T23:00:28.052Z,28.82
2019-03-01T23:02:56.451Z,28.89
2019-03-01T23:05:24.857Z,28.91
2019-03-01T23:07:53.258Z,28.98
2019-03-01T23:10:22.402Z,28.99
2019-03-01T23:12:50.903Z,29.04
2019-03-01T23:15:19.389Z,29.20
2019-03-01T23:17:47.807Z,29.27
2019-03-01T23:20:16.219Z,29.29
2019-03-01T23:22:46.039Z,29.39
2019-03-01T23:25:14.697Z,29.37
2019-03-01T23:27:43.100Z,29.42
2019-03-01T23:30:11.534Z,29.53
2019-03-01T23:32:39.925Z,29.53
2019-03-01T23:35:08.397Z,29.64
2019-03-01T23:37:38.814Z,29.64
2019-03-01T23:40:07.476Z,29.72
2019-03-01T23:42:35.952Z,29.90
2019-03-01T23:45:13.813Z,29.79
2019-03-01T23:47:41.431Z,29.78
2019-03-01T23:50:10.331Z,29.89
2019-03-01T23:52:38.805Z,29.98
2019-03-01T23:55:07.872Z,29.95
2019-03-01T23:57:38.089Z,30.02
